sensor_id;sensor_type;location;lat;lon;timestamp;P1;durP1;ratioP1;P2;durP2;ratioP2
11646;SDS011;5880;52.342;9.662;2023-05-08T00:00:24;5.97;;;5.43;;
11646;SDS011;5880;52.342;9.662;2023-05-08T00:02:49;5.73;;;5.10;;
11646;SDS011;5880;52.342;9.662;2023-05-08T00:05:15;6.07;;;5.30;;
11646;SDS011;5880;52.342;9.662;2023-05-08T00:07:41;6.23;;;5.63;;
11646;SDS011;5880;52.342;9.662;2023-05-08T00:10:07;6.30;;;5.70;;
11646;SDS011;5880;52.342;9.662;2023-05-08T00:12:34;5.97;;;5.47;;
11646;SDS011;5880;52.342;9.662;2023-05-08T00:15:01;6.43;;;5.83;;
11646;SDS011;5880;52.342;9.662;2023-05-08T00:17:28;6.10;;;5.50;;
11646;SDS011;5880;52.342;9.662;2023-05-08T00:19:54;6.13;;;5.53;;
11646;SDS011;5880;52.342;9.662;2023-05-08T00:22:20;6.60;;;6.00;;
11646;SDS011;5880;52.342;9.662;2023-05-08T00:24:46;6.27;;;5.67;;
11646;SDS011;5880;52.342;9.662;2023-05-08T00:27:11;6.43;;;5.83;;
11646;SDS011;5880;52.342;9.662;2023-05-08T00:29:37;6.40;;;5.80;;
11646;SDS011;5880;52.342;9.662;2023-05-08T00:32:06;5.70;;;5.20;;
11646;SDS011;5880;52.342;9.662;2023-05-08T00:34:32;5.83;;;5.33;;
11646;SDS011;5880;52.342;9.662;2023-05-08T00:36:57;6.20;;;5.60;;
11646;SDS011;5880;52.342;9.662;2023-05-08T00:39:23;6.67;;;6.00;;
11646;SDS011;5880;52.342;9.662;2023-05-08T00:41:49;5.70;;;5.20;;
11646;SDS011;5880;52.342;9.662;2023-05-08T00:44:14;8.00;;;6.47;;
11646;SDS011;5880;52.342;9.662;2023-05-08T00:46:40;7.13;;;6.10;;
11646;SDS011;5880;52.342;9.662;2023-05-08T00:49:08;6.77;;;6.07;;
11646;SDS011;5880;52.342;9.662;2023-05-08T00:51:37;6.00;;;5.40;;
11646;SDS011;5880;52.342;9.662;2023-05-08T00:54:04;6.00;;;5.43;;
11646;SDS011;5880;52.342;9.662;2023-05-08T00:56:30;6.83;;;6.13;;
11646;SDS011;5880;52.342;9.662;2023-05-08T00:58:58;6.50;;;5.90;;
11646;SDS011;5880;52.342;9.662;2023-05-08T01:01:23;6.63;;;5.90;;
11646;SDS011;5880;52.342;9.662;2023-05-08T01:03:49;9.13;;;5.73;;
11646;SDS011;5880;52.342;9.662;2023-05-08T01:06:15;6.23;;;5.67;;
11646;SDS011;5880;52.342;9.662;2023-05-08T01:08:42;7.73;;;6.20;;
11646;SDS011;5880;52.342;9.662;2023-05-08T01:14:20;6.57;;;6.00;;
11646;SDS011;5880;52.342;9.662;2023-05-08T01:17:27;7.73;;;6.60;;
11646;SDS011;5880;52.342;9.662;2023-05-08T01:20:44;6.93;;;6.23;;
11646;SDS011;5880;52.342;9.662;2023-05-08T01:26:30;7.20;;;6.50;;
11646;SDS011;5880;52.342;9.662;2023-05-08T01:35:09;6.57;;;5.93;;
11646;SDS011;5880;52.342;9.662;2023-05-08T01:37:49;6.43;;;5.83;;
11646;SDS011;5880;52.342;9.662;2023-05-08T01:45:58;6.07;;;5.47;;
11646;SDS011;5880;52.342;9.662;2023-05-08T01:48:34;6.40;;;5.80;;
11646;SDS011;5880;52.342;9.662;2023-05-08T01:51:11;7.57;;;5.87;;
11646;SDS011;5880;52.342;9.662;2023-05-08T01:53:44;6.70;;;6.03;;
11646;SDS011;5880;52.342;9.662;2023-05-08T01:56:23;6.63;;;6.00;;
11646;SDS011;5880;52.342;9.662;2023-05-08T01:58:53;8.40;;;6.30;;
11646;SDS011;5880;52.342;9.662;2023-05-08T02:01:23;7.33;;;6.63;;
11646;SDS011;5880;52.342;9.662;2023-05-08T02:03:53;7.07;;;6.37;;
11646;SDS011;5880;52.342;9.662;2023-05-08T02:06:20;6.90;;;6.30;;
11646;SDS011;5880;52.342;9.662;2023-05-08T02:08:47;6.93;;;6.23;;
11646;SDS011;5880;52.342;9.662;2023-05-08T02:11:15;7.07;;;6.37;;
11646;SDS011;5880;52.342;9.662;2023-05-08T02:13:43;6.57;;;5.97;;
11646;SDS011;5880;52.342;9.662;2023-05-08T02:16:12;6.80;;;6.10;;
11646;SDS011;5880;52.342;9.662;2023-05-08T02:18:42;7.17;;;6.53;;
11646;SDS011;5880;52.342;9.662;2023-05-08T02:21:14;7.00;;;6.30;;
11646;SDS011;5880;52.342;9.662;2023-05-08T02:23:44;7.60;;;6.90;;
11646;SDS011;5880;52.342;9.662;2023-05-08T02:26:13;6.70;;;6.03;;
11646;SDS011;5880;52.342;9.662;2023-05-08T02:28:40;7.33;;;6.13;;
11646;SDS011;5880;52.342;9.662;2023-05-08T02:31:08;7.07;;;6.37;;
11646;SDS011;5880;52.342;9.662;2023-05-08T02:33:36;7.43;;;6.73;;
11646;SDS011;5880;52.342;9.662;2023-05-08T02:36:06;7.50;;;6.70;;
11646;SDS011;5880;52.342;9.662;2023-05-08T02:38:32;7.53;;;6.77;;
11646;SDS011;5880;52.342;9.662;2023-05-08T02:41:02;7.50;;;6.70;;
11646;SDS011;5880;52.342;9.662;2023-05-08T02:43:30;8.03;;;7.23;;
11646;SDS011;5880;52.342;9.662;2023-05-08T02:46:13;7.30;;;6.60;;
11646;SDS011;5880;52.342;9.662;2023-05-08T02:51:44;7.10;;;6.40;;
11646;SDS011;5880;52.342;9.662;2023-05-08T02:54:39;6.53;;;5.73;;
11646;SDS011;5880;52.342;9.662;2023-05-08T03:00:32;7.47;;;6.60;;
11646;SDS011;5880;52.342;9.662;2023-05-08T03:03:11;7.33;;;6.57;;
11646;SDS011;5880;52.342;9.662;2023-05-08T03:05:46;7.20;;;6.50;;
11646;SDS011;5880;52.342;9.662;2023-05-08T03:08:23;7.17;;;6.47;;
11646;SDS011;5880;52.342;9.662;2023-05-08T03:10:55;6.43;;;5.83;;
11646;SDS011;5880;52.342;9.662;2023-05-08T03:13:27;6.67;;;6.07;;
11646;SDS011;5880;52.342;9.662;2023-05-08T03:15:59;6.90;;;6.23;;
11646;SDS011;5880;52.342;9.662;2023-05-08T03:18:32;7.47;;;6.30;;
11646;SDS011;5880;52.342;9.662;2023-05-08T03:21:05;6.03;;;5.50;;
11646;SDS011;5880;52.342;9.662;2023-05-08T03:23:34;6.80;;;6.20;;
11646;SDS011;5880;52.342;9.662;2023-05-08T03:26:03;7.00;;;6.30;;
11646;SDS011;5880;52.342;9.662;2023-05-08T03:28:30;6.87;;;6.17;;
11646;SDS011;5880;52.342;9.662;2023-05-08T03:30:56;7.47;;;6.60;;
11646;SDS011;5880;52.342;9.662;2023-05-08T03:33:24;6.73;;;6.03;;
11646;SDS011;5880;52.342;9.662;2023-05-08T03:35:52;6.87;;;6.17;;
11646;SDS011;5880;52.342;9.662;2023-05-08T03:38:21;7.50;;;6.80;;
11646;SDS011;5880;52.342;9.662;2023-05-08T03:40:47;6.20;;;5.60;;
11646;SDS011;5880;52.342;9.662;2023-05-08T03:43:14;7.77;;;7.00;;
11646;SDS011;5880;52.342;9.662;2023-05-08T03:45:41;7.20;;;6.50;;
11646;SDS011;5880;52.342;9.662;2023-05-08T03:48:09;6.70;;;6.00;;
11646;SDS011;5880;52.342;9.662;2023-05-08T03:50:35;6.63;;;5.87;;
11646;SDS011;5880;52.342;9.662;2023-05-08T03:53:02;7.27;;;6.30;;
11646;SDS011;5880;52.342;9.662;2023-05-08T03:55:31;7.27;;;6.57;;
11646;SDS011;5880;52.342;9.662;2023-05-08T03:58:04;7.03;;;6.33;;
11646;SDS011;5880;52.342;9.662;2023-05-08T04:04:15;7.30;;;6.23;;
11646;SDS011;5880;52.342;9.662;2023-05-08T04:12:39;8.77;;;6.43;;
11646;SDS011;5880;52.342;9.662;2023-05-08T04:15:50;7.60;;;6.90;;
11646;SDS011;5880;52.342;9.662;2023-05-08T04:18:29;7.87;;;6.40;;
11646;SDS011;5880;52.342;9.662;2023-05-08T04:21:00;7.07;;;6.37;;
11646;SDS011;5880;52.342;9.662;2023-05-08T04:23:33;7.27;;;6.57;;
11646;SDS011;5880;52.342;9.662;2023-05-08T04:26:00;7.47;;;6.60;;
11646;SDS011;5880;52.342;9.662;2023-05-08T04:28:29;7.23;;;6.53;;
11646;SDS011;5880;52.342;9.662;2023-05-08T04:30:55;7.07;;;6.47;;
11646;SDS011;5880;52.342;9.662;2023-05-08T04:33:22;7.00;;;6.27;;
11646;SDS011;5880;52.342;9.662;2023-05-08T04:35:49;6.93;;;6.30;;
11646;SDS011;5880;52.342;9.662;2023-05-08T04:38:15;7.50;;;6.80;;
11646;SDS011;5880;52.342;9.662;2023-05-08T04:40:40;8.50;;;7.07;;
11646;SDS011;5880;52.342;9.662;2023-05-08T04:43:06;9.23;;;6.90;;
11646;SDS011;5880;52.342;9.662;2023-05-08T04:45:32;7.27;;;6.57;;
11646;SDS011;5880;52.342;9.662;2023-05-08T04:47:57;7.70;;;7.00;;
11646;SDS011;5880;52.342;9.662;2023-05-08T04:50:23;7.73;;;7.03;;
11646;SDS011;5880;52.342;9.662;2023-05-08T04:52:49;7.87;;;6.77;;
11646;SDS011;5880;52.342;9.662;2023-05-08T04:55:15;7.47;;;6.60;;
11646;SDS011;5880;52.342;9.662;2023-05-08T04:57:40;7.17;;;6.50;;
11646;SDS011;5880;52.342;9.662;2023-05-08T05:00:06;7.87;;;7.07;;
11646;SDS011;5880;52.342;9.662;2023-05-08T05:02:33;8.40;;;7.03;;
11646;SDS011;5880;52.342;9.662;2023-05-08T05:04:58;7.83;;;7.10;;
11646;SDS011;5880;52.342;9.662;2023-05-08T05:07:25;7.80;;;7.00;;
11646;SDS011;5880;52.342;9.662;2023-05-08T05:09:50;7.00;;;6.37;;
11646;SDS011;5880;52.342;9.662;2023-05-08T05:12:16;7.60;;;6.90;;
11646;SDS011;5880;52.342;9.662;2023-05-08T05:14:42;7.73;;;6.80;;
11646;SDS011;5880;52.342;9.662;2023-05-08T05:17:07;6.93;;;6.27;;
11646;SDS011;5880;52.342;9.662;2023-05-08T05:19:33;7.07;;;6.37;;
11646;SDS011;5880;52.342;9.662;2023-05-08T05:21:59;6.93;;;6.23;;
11646;SDS011;5880;52.342;9.662;2023-05-08T05:24:24;7.67;;;6.53;;
11646;SDS011;5880;52.342;9.662;2023-05-08T05:26:50;6.90;;;6.27;;
11646;SDS011;5880;52.342;9.662;2023-05-08T05:29:16;8.27;;;7.20;;
11646;SDS011;5880;52.342;9.662;2023-05-08T05:31:42;7.20;;;6.50;;
11646;SDS011;5880;52.342;9.662;2023-05-08T05:34:07;7.67;;;6.97;;
11646;SDS011;5880;52.342;9.662;2023-05-08T05:36:33;7.63;;;6.77;;
11646;SDS011;5880;52.342;9.662;2023-05-08T05:38:58;7.10;;;6.40;;
11646;SDS011;5880;52.342;9.662;2023-05-08T05:41:24;6.82;;;6.22;;
11646;SDS011;5880;52.342;9.662;2023-05-08T05:43:50;6.00;;;5.50;;
11646;SDS011;5880;52.342;9.662;2023-05-08T05:46:15;6.43;;;5.82;;
11646;SDS011;5880;52.342;9.662;2023-05-08T05:48:41;5.82;;;5.32;;
11646;SDS011;5880;52.342;9.662;2023-05-08T05:51:07;5.75;;;5.25;;
11646;SDS011;5880;52.342;9.662;2023-05-08T05:53:33;5.85;;;5.30;;
11646;SDS011;5880;52.342;9.662;2023-05-08T05:55:58;5.88;;;5.28;;
11646;SDS011;5880;52.342;9.662;2023-05-08T05:58:24;5.78;;;5.30;;
11646;SDS011;5880;52.342;9.662;2023-05-08T06:00:50;5.63;;;5.13;;
11646;SDS011;5880;52.342;9.662;2023-05-08T06:03:15;4.97;;;4.57;;
11646;SDS011;5880;52.342;9.662;2023-05-08T06:05:41;5.93;;;5.50;;
11646;SDS011;5880;52.342;9.662;2023-05-08T06:08:07;5.93;;;5.45;;
11646;SDS011;5880;52.342;9.662;2023-05-08T06:10:33;5.80;;;5.20;;
11646;SDS011;5880;52.342;9.662;2023-05-08T06:12:59;5.15;;;4.75;;
11646;SDS011;5880;52.342;9.662;2023-05-08T06:15:24;5.00;;;4.60;;
11646;SDS011;5880;52.342;9.662;2023-05-08T06:17:50;5.40;;;4.90;;
11646;SDS011;5880;52.342;9.662;2023-05-08T06:20:16;5.03;;;4.63;;
11646;SDS011;5880;52.342;9.662;2023-05-08T06:22:42;5.10;;;4.70;;
11646;SDS011;5880;52.342;9.662;2023-05-08T06:25:08;5.55;;;5.15;;
11646;SDS011;5880;52.342;9.662;2023-05-08T06:27:34;5.85;;;4.97;;
11646;SDS011;5880;52.342;9.662;2023-05-08T06:30:01;5.05;;;4.57;;
11646;SDS011;5880;52.342;9.662;2023-05-08T06:32:28;5.07;;;4.68;;
11646;SDS011;5880;52.342;9.662;2023-05-08T06:34:54;5.28;;;4.88;;
11646;SDS011;5880;52.342;9.662;2023-05-08T06:37:20;5.35;;;4.95;;
11646;SDS011;5880;52.342;9.662;2023-05-08T06:39:46;4.80;;;4.38;;
11646;SDS011;5880;52.342;9.662;2023-05-08T06:42:12;4.90;;;4.50;;
11646;SDS011;5880;52.342;9.662;2023-05-08T06:44:38;4.70;;;4.30;;
11646;SDS011;5880;52.342;9.662;2023-05-08T06:47:04;4.55;;;4.22;;
11646;SDS011;5880;52.342;9.662;2023-05-08T06:49:31;4.93;;;4.53;;
11646;SDS011;5880;52.342;9.662;2023-05-08T06:51:56;4.78;;;4.38;;
11646;SDS011;5880;52.342;9.662;2023-05-08T06:54:22;4.90;;;4.50;;
11646;SDS011;5880;52.342;9.662;2023-05-08T06:56:48;5.68;;;5.18;;
11646;SDS011;5880;52.342;9.662;2023-05-08T06:59:13;5.10;;;4.70;;
11646;SDS011;5880;52.342;9.662;2023-05-08T07:01:39;5.63;;;4.53;;
11646;SDS011;5880;52.342;9.662;2023-05-08T07:04:05;4.95;;;4.53;;
11646;SDS011;5880;52.342;9.662;2023-05-08T07:06:31;5.00;;;4.60;;
11646;SDS011;5880;52.342;9.662;2023-05-08T07:08:57;5.35;;;4.95;;
11646;SDS011;5880;52.342;9.662;2023-05-08T07:11:22;4.95;;;4.50;;
11646;SDS011;5880;52.342;9.662;2023-05-08T07:13:48;4.57;;;4.20;;
11646;SDS011;5880;52.342;9.662;2023-05-08T07:16:14;4.72;;;4.32;;
11646;SDS011;5880;52.342;9.662;2023-05-08T07:18:40;4.60;;;4.20;;
11646;SDS011;5880;52.342;9.662;2023-05-08T07:21:06;4.95;;;4.55;;
11646;SDS011;5880;52.342;9.662;2023-05-08T07:23:32;5.28;;;4.50;;
11646;SDS011;5880;52.342;9.662;2023-05-08T07:25:58;5.15;;;4.65;;
11646;SDS011;5880;52.342;9.662;2023-05-08T07:28:24;7.05;;;5.80;;
11646;SDS011;5880;52.342;9.662;2023-05-08T07:30:49;12.52;;;7.75;;
11646;SDS011;5880;52.342;9.662;2023-05-08T07:33:15;6.78;;;6.07;;
11646;SDS011;5880;52.342;9.662;2023-05-08T07:35:42;6.80;;;5.80;;
11646;SDS011;5880;52.342;9.662;2023-05-08T07:38:07;5.47;;;5.00;;
11646;SDS011;5880;52.342;9.662;2023-05-08T07:40:33;5.20;;;4.72;;
11646;SDS011;5880;52.342;9.662;2023-05-08T07:42:59;5.53;;;5.03;;
11646;SDS011;5880;52.342;9.662;2023-05-08T07:45:25;5.45;;;5.05;;
11646;SDS011;5880;52.342;9.662;2023-05-08T07:47:51;5.25;;;4.78;;
11646;SDS011;5880;52.342;9.662;2023-05-08T07:50:22;5.53;;;5.13;;
11646;SDS011;5880;52.342;9.662;2023-05-08T07:52:50;5.15;;;4.75;;
11646;SDS011;5880;52.342;9.662;2023-05-08T07:55:16;5.78;;;5.28;;
11646;SDS011;5880;52.342;9.662;2023-05-08T07:57:44;5.75;;;5.25;;
11646;SDS011;5880;52.342;9.662;2023-05-08T08:00:13;5.72;;;5.22;;
11646;SDS011;5880;52.342;9.662;2023-05-08T08:02:40;5.38;;;4.97;;
11646;SDS011;5880;52.342;9.662;2023-05-08T08:05:07;6.50;;;5.88;;
11646;SDS011;5880;52.342;9.662;2023-05-08T08:07:33;7.35;;;6.25;;
11646;SDS011;5880;52.342;9.662;2023-05-08T08:09:59;6.63;;;5.95;;
11646;SDS011;5880;52.342;9.662;2023-05-08T08:12:27;6.68;;;5.97;;
11646;SDS011;5880;52.342;9.662;2023-05-08T08:14:53;6.25;;;5.55;;
11646;SDS011;5880;52.342;9.662;2023-05-08T08:17:19;8.68;;;6.43;;
11646;SDS011;5880;52.342;9.662;2023-05-08T08:19:45;35.15;;;15.57;;
11646;SDS011;5880;52.342;9.662;2023-05-08T08:22:10;16.75;;;9.20;;
11646;SDS011;5880;52.342;9.662;2023-05-08T08:24:36;10.98;;;7.25;;
11646;SDS011;5880;52.342;9.662;2023-05-08T08:27:02;7.85;;;6.95;;
11646;SDS011;5880;52.342;9.662;2023-05-08T08:29:28;8.15;;;7.35;;
11646;SDS011;5880;52.342;9.662;2023-05-08T08:31:54;6.75;;;6.15;;
11646;SDS011;5880;52.342;9.662;2023-05-08T08:34:20;7.25;;;6.55;;
11646;SDS011;5880;52.342;9.662;2023-05-08T08:36:46;6.43;;;5.80;;
11646;SDS011;5880;52.342;9.662;2023-05-08T08:39:12;7.63;;;6.93;;
11646;SDS011;5880;52.342;9.662;2023-05-08T08:41:38;7.00;;;6.30;;
11646;SDS011;5880;52.342;9.662;2023-05-08T08:44:04;6.90;;;6.20;;
11646;SDS011;5880;52.342;9.662;2023-05-08T08:46:30;6.00;;;5.43;;
11646;SDS011;5880;52.342;9.662;2023-05-08T08:48:57;5.85;;;5.35;;
11646;SDS011;5880;52.342;9.662;2023-05-08T08:51:27;7.25;;;6.55;;
11646;SDS011;5880;52.342;9.662;2023-05-08T08:54:03;7.07;;;6.40;;
11646;SDS011;5880;52.342;9.662;2023-05-08T08:56:35;7.18;;;6.13;;
11646;SDS011;5880;52.342;9.662;2023-05-08T08:59:04;5.88;;;5.38;;
11646;SDS011;5880;52.342;9.662;2023-05-08T09:01:33;6.15;;;5.65;;
11646;SDS011;5880;52.342;9.662;2023-05-08T09:04:02;7.20;;;6.57;;
11646;SDS011;5880;52.342;9.662;2023-05-08T09:06:29;6.43;;;5.78;;
11646;SDS011;5880;52.342;9.662;2023-05-08T09:08:58;7.38;;;5.95;;
11646;SDS011;5880;52.342;9.662;2023-05-08T09:11:26;6.07;;;5.57;;
11646;SDS011;5880;52.342;9.662;2023-05-08T09:13:55;6.43;;;5.82;;
11646;SDS011;5880;52.342;9.662;2023-05-08T09:16:22;7.07;;;6.38;;
11646;SDS011;5880;52.342;9.662;2023-05-08T09:18:49;6.90;;;6.28;;
11646;SDS011;5880;52.342;9.662;2023-05-08T09:21:15;6.88;;;6.28;;
11646;SDS011;5880;52.342;9.662;2023-05-08T09:26:37;6.38;;;5.78;;
11646;SDS011;5880;52.342;9.662;2023-05-08T09:29:15;6.63;;;6.05;;
11646;SDS011;5880;52.342;9.662;2023-05-08T09:31:44;6.65;;;5.95;;
11646;SDS011;5880;52.342;9.662;2023-05-08T09:34:25;6.00;;;5.40;;
11646;SDS011;5880;52.342;9.662;2023-05-08T09:39:31;7.40;;;5.60;;
11646;SDS011;5880;52.342;9.662;2023-05-08T09:42:00;5.95;;;5.45;;
11646;SDS011;5880;52.342;9.662;2023-05-08T09:44:40;10.57;;;7.75;;
11646;SDS011;5880;52.342;9.662;2023-05-08T09:47:20;10.13;;;6.68;;
11646;SDS011;5880;52.342;9.662;2023-05-08T09:50:07;10.55;;;7.97;;
11646;SDS011;5880;52.342;9.662;2023-05-08T09:52:36;9.98;;;7.07;;
11646;SDS011;5880;52.342;9.662;2023-05-08T09:55:04;29.38;;;14.25;;
11646;SDS011;5880;52.342;9.662;2023-05-08T09:57:36;15.95;;;9.55;;
11646;SDS011;5880;52.342;9.662;2023-05-08T10:02:37;9.18;;;7.40;;
11646;SDS011;5880;52.342;9.662;2023-05-08T10:05:23;7.47;;;6.78;;
11646;SDS011;5880;52.342;9.662;2023-05-08T10:07:58;7.40;;;6.70;;
11646;SDS011;5880;52.342;9.662;2023-05-08T10:10:48;7.05;;;6.40;;
11646;SDS011;5880;52.342;9.662;2023-05-08T10:13:14;6.38;;;5.78;;
11646;SDS011;5880;52.342;9.662;2023-05-08T10:15:41;5.95;;;5.45;;
11646;SDS011;5880;52.342;9.662;2023-05-08T10:18:08;6.53;;;5.93;;
11646;SDS011;5880;52.342;9.662;2023-05-08T10:20:39;6.97;;;5.80;;
11646;SDS011;5880;52.342;9.662;2023-05-08T10:23:09;7.03;;;6.25;;
11646;SDS011;5880;52.342;9.662;2023-05-08T10:25:41;7.28;;;6.63;;
11646;SDS011;5880;52.342;9.662;2023-05-08T10:31:07;7.20;;;6.03;;
11646;SDS011;5880;52.342;9.662;2023-05-08T10:33:37;6.43;;;5.93;;
11646;SDS011;5880;52.342;9.662;2023-05-08T10:36:05;6.20;;;5.60;;
11646;SDS011;5880;52.342;9.662;2023-05-08T10:38:33;6.93;;;6.32;;
11646;SDS011;5880;52.342;9.662;2023-05-08T10:41:01;6.35;;;5.75;;
11646;SDS011;5880;52.342;9.662;2023-05-08T10:43:28;5.80;;;5.30;;
11646;SDS011;5880;52.342;9.662;2023-05-08T10:45:55;7.15;;;5.70;;
11646;SDS011;5880;52.342;9.662;2023-05-08T10:48:30;6.75;;;6.15;;
11646;SDS011;5880;52.342;9.662;2023-05-08T10:51:22;6.20;;;5.60;;
11646;SDS011;5880;52.342;9.662;2023-05-08T10:54:29;5.63;;;5.13;;
11646;SDS011;5880;52.342;9.662;2023-05-08T10:57:15;6.50;;;5.68;;
11646;SDS011;5880;52.342;9.662;2023-05-08T10:59:45;6.05;;;5.45;;
11646;SDS011;5880;52.342;9.662;2023-05-08T11:02:11;6.05;;;5.45;;
11646;SDS011;5880;52.342;9.662;2023-05-08T11:04:37;6.15;;;5.65;;
11646;SDS011;5880;52.342;9.662;2023-05-08T11:07:03;5.57;;;5.00;;
11646;SDS011;5880;52.342;9.662;2023-05-08T11:09:43;5.80;;;5.30;;
11646;SDS011;5880;52.342;9.662;2023-05-08T11:14:59;6.72;;;6.13;;
11646;SDS011;5880;52.342;9.662;2023-05-08T11:17:30;7.05;;;5.60;;
11646;SDS011;5880;52.342;9.662;2023-05-08T11:20:00;6.55;;;5.95;;
11646;SDS011;5880;52.342;9.662;2023-05-08T11:22:31;6.63;;;6.03;;
11646;SDS011;5880;52.342;9.662;2023-05-08T11:24:59;7.78;;;6.97;;
11646;SDS011;5880;52.342;9.662;2023-05-08T11:27:34;7.40;;;6.68;;
11646;SDS011;5880;52.342;9.662;2023-05-08T11:30:19;7.97;;;7.18;;
11646;SDS011;5880;52.342;9.662;2023-05-08T11:32:57;7.35;;;6.18;;
11646;SDS011;5880;52.342;9.662;2023-05-08T11:38:17;8.80;;;7.82;;
11646;SDS011;5880;52.342;9.662;2023-05-08T11:40:58;6.18;;;5.68;;
11646;SDS011;5880;52.342;9.662;2023-05-08T11:45:59;6.75;;;6.15;;
11646;SDS011;5880;52.342;9.662;2023-05-08T11:48:28;7.45;;;6.72;;
11646;SDS011;5880;52.342;9.662;2023-05-08T11:50:55;6.75;;;6.13;;
11646;SDS011;5880;52.342;9.662;2023-05-08T11:53:20;7.20;;;6.60;;
11646;SDS011;5880;52.342;9.662;2023-05-08T11:55:56;7.93;;;6.38;;
11646;SDS011;5880;52.342;9.662;2023-05-08T11:58:23;6.85;;;6.22;;
11646;SDS011;5880;52.342;9.662;2023-05-08T12:00:49;7.45;;;6.50;;
11646;SDS011;5880;52.342;9.662;2023-05-08T12:03:18;10.95;;;8.48;;
11646;SDS011;5880;52.342;9.662;2023-05-08T12:05:54;12.90;;;9.82;;
11646;SDS011;5880;52.342;9.662;2023-05-08T12:08:22;16.70;;;10.98;;
11646;SDS011;5880;52.342;9.662;2023-05-08T12:10:49;13.32;;;8.63;;
11646;SDS011;5880;52.342;9.662;2023-05-08T12:13:22;12.80;;;9.25;;
11646;SDS011;5880;52.342;9.662;2023-05-08T12:15:51;10.35;;;7.78;;
11646;SDS011;5880;52.342;9.662;2023-05-08T12:18:19;12.27;;;8.02;;
11646;SDS011;5880;52.342;9.662;2023-05-08T12:20:51;15.63;;;10.38;;
11646;SDS011;5880;52.342;9.662;2023-05-08T12:23:18;10.77;;;8.30;;
11646;SDS011;5880;52.342;9.662;2023-05-08T12:25:44;13.50;;;9.57;;
11646;SDS011;5880;52.342;9.662;2023-05-08T12:28:10;9.73;;;7.97;;
11646;SDS011;5880;52.342;9.662;2023-05-08T12:30:36;7.28;;;6.50;;
11646;SDS011;5880;52.342;9.662;2023-05-08T12:33:02;8.30;;;6.35;;
11646;SDS011;5880;52.342;9.662;2023-05-08T12:35:30;7.55;;;6.85;;
11646;SDS011;5880;52.342;9.662;2023-05-08T12:38:00;8.50;;;7.13;;
11646;SDS011;5880;52.342;9.662;2023-05-08T12:40:31;8.90;;;6.63;;
11646;SDS011;5880;52.342;9.662;2023-05-08T12:43:08;9.15;;;6.95;;
11646;SDS011;5880;52.342;9.662;2023-05-08T12:45:38;6.80;;;6.20;;
11646;SDS011;5880;52.342;9.662;2023-05-08T12:48:06;6.57;;;5.90;;
11646;SDS011;5880;52.342;9.662;2023-05-08T12:50:45;5.85;;;5.32;;
11646;SDS011;5880;52.342;9.662;2023-05-08T12:53:14;6.78;;;6.10;;
11646;SDS011;5880;52.342;9.662;2023-05-08T12:55:49;5.88;;;5.38;;
11646;SDS011;5880;52.342;9.662;2023-05-08T12:58:24;6.25;;;5.72;;
11646;SDS011;5880;52.342;9.662;2023-05-08T13:01:08;6.70;;;6.00;;
11646;SDS011;5880;52.342;9.662;2023-05-08T13:03:37;9.07;;;7.65;;
11646;SDS011;5880;52.342;9.662;2023-05-08T13:06:04;9.52;;;7.15;;
11646;SDS011;5880;52.342;9.662;2023-05-08T13:08:31;9.23;;;8.15;;
11646;SDS011;5880;52.342;9.662;2023-05-08T13:10:59;12.20;;;8.80;;
11646;SDS011;5880;52.342;9.662;2023-05-08T13:13:28;11.13;;;7.97;;
11646;SDS011;5880;52.342;9.662;2023-05-08T13:15:57;7.30;;;6.47;;
11646;SDS011;5880;52.342;9.662;2023-05-08T13:18:26;13.25;;;9.25;;
11646;SDS011;5880;52.342;9.662;2023-05-08T13:20:55;10.73;;;7.47;;
11646;SDS011;5880;52.342;9.662;2023-05-08T13:23:21;24.38;;;12.88;;
11646;SDS011;5880;52.342;9.662;2023-05-08T13:25:48;11.30;;;7.68;;
11646;SDS011;5880;52.342;9.662;2023-05-08T13:28:15;8.27;;;6.18;;
11646;SDS011;5880;52.342;9.662;2023-05-08T13:30:41;6.32;;;5.35;;
11646;SDS011;5880;52.342;9.662;2023-05-08T13:33:06;5.20;;;4.70;;
11646;SDS011;5880;52.342;9.662;2023-05-08T13:35:33;5.22;;;4.72;;
11646;SDS011;5880;52.342;9.662;2023-05-08T13:37:59;5.57;;;5.07;;
11646;SDS011;5880;52.342;9.662;2023-05-08T13:40:25;5.15;;;4.75;;
11646;SDS011;5880;52.342;9.662;2023-05-08T13:42:52;5.70;;;4.60;;
11646;SDS011;5880;52.342;9.662;2023-05-08T13:45:18;6.18;;;5.10;;
11646;SDS011;5880;52.342;9.662;2023-05-08T13:47:44;5.32;;;4.85;;
11646;SDS011;5880;52.342;9.662;2023-05-08T13:50:12;5.38;;;4.97;;
11646;SDS011;5880;52.342;9.662;2023-05-08T13:52:40;6.13;;;5.32;;
11646;SDS011;5880;52.342;9.662;2023-05-08T13:55:07;4.95;;;4.53;;
11646;SDS011;5880;52.342;9.662;2023-05-08T13:57:36;5.30;;;4.80;;
11646;SDS011;5880;52.342;9.662;2023-05-08T14:00:03;6.47;;;5.63;;
11646;SDS011;5880;52.342;9.662;2023-05-08T14:02:30;5.85;;;5.07;;
11646;SDS011;5880;52.342;9.662;2023-05-08T14:04:56;7.32;;;5.72;;
11646;SDS011;5880;52.342;9.662;2023-05-08T14:07:22;10.73;;;7.20;;
11646;SDS011;5880;52.342;9.662;2023-05-08T14:09:48;10.85;;;7.10;;
11646;SDS011;5880;52.342;9.662;2023-05-08T14:12:13;7.28;;;5.78;;
11646;SDS011;5880;52.342;9.662;2023-05-08T14:14:39;5.95;;;5.20;;
11646;SDS011;5880;52.342;9.662;2023-05-08T14:17:05;5.03;;;4.53;;
11646;SDS011;5880;52.342;9.662;2023-05-08T14:19:32;4.47;;;4.07;;
11646;SDS011;5880;52.342;9.662;2023-05-08T14:21:57;6.65;;;4.65;;
11646;SDS011;5880;52.342;9.662;2023-05-08T14:24:23;4.80;;;4.40;;
11646;SDS011;5880;52.342;9.662;2023-05-08T14:26:49;4.65;;;4.25;;
11646;SDS011;5880;52.342;9.662;2023-05-08T14:29:15;4.70;;;4.07;;
11646;SDS011;5880;52.342;9.662;2023-05-08T14:31:42;4.50;;;4.10;;
11646;SDS011;5880;52.342;9.662;2023-05-08T14:34:09;4.40;;;4.00;;
11646;SDS011;5880;52.342;9.662;2023-05-08T14:36:34;4.32;;;3.92;;
11646;SDS011;5880;52.342;9.662;2023-05-08T14:39:00;4.47;;;4.07;;
11646;SDS011;5880;52.342;9.662;2023-05-08T14:41:29;4.75;;;4.20;;
11646;SDS011;5880;52.342;9.662;2023-05-08T14:43:56;4.40;;;4.00;;
11646;SDS011;5880;52.342;9.662;2023-05-08T14:46:22;5.00;;;4.50;;
11646;SDS011;5880;52.342;9.662;2023-05-08T14:48:48;4.70;;;4.30;;
11646;SDS011;5880;52.342;9.662;2023-05-08T14:51:15;5.50;;;4.95;;
11646;SDS011;5880;52.342;9.662;2023-05-08T14:53:42;5.07;;;4.57;;
11646;SDS011;5880;52.342;9.662;2023-05-08T14:56:08;5.47;;;4.97;;
11646;SDS011;5880;52.342;9.662;2023-05-08T14:58:34;4.38;;;4.07;;
11646;SDS011;5880;52.342;9.662;2023-05-08T15:00:59;4.65;;;4.25;;
11646;SDS011;5880;52.342;9.662;2023-05-08T15:03:25;5.38;;;4.95;;
11646;SDS011;5880;52.342;9.662;2023-05-08T15:05:50;4.80;;;4.22;;
11646;SDS011;5880;52.342;9.662;2023-05-08T15:08:16;4.72;;;4.32;;
11646;SDS011;5880;52.342;9.662;2023-05-08T15:10:42;4.65;;;4.25;;
11646;SDS011;5880;52.342;9.662;2023-05-08T15:13:07;5.28;;;4.15;;
11646;SDS011;5880;52.342;9.662;2023-05-08T15:15:33;4.78;;;4.38;;
11646;SDS011;5880;52.342;9.662;2023-05-08T15:17:59;4.40;;;4.03;;
11646;SDS011;5880;52.342;9.662;2023-05-08T15:20:24;4.70;;;4.30;;
11646;SDS011;5880;52.342;9.662;2023-05-08T15:22:50;4.60;;;4.20;;
11646;SDS011;5880;52.342;9.662;2023-05-08T15:25:16;4.60;;;4.20;;
11646;SDS011;5880;52.342;9.662;2023-05-08T15:27:42;4.70;;;4.30;;
11646;SDS011;5880;52.342;9.662;2023-05-08T15:30:08;4.90;;;4.40;;
11646;SDS011;5880;52.342;9.662;2023-05-08T15:32:34;5.28;;;4.40;;
11646;SDS011;5880;52.342;9.662;2023-05-08T15:35:01;4.35;;;4.05;;
11646;SDS011;5880;52.342;9.662;2023-05-08T15:37:27;4.68;;;4.18;;
11646;SDS011;5880;52.342;9.662;2023-05-08T15:39:52;4.85;;;4.45;;
11646;SDS011;5880;52.342;9.662;2023-05-08T15:42:18;4.88;;;4.47;;
11646;SDS011;5880;52.342;9.662;2023-05-08T15:44:44;5.18;;;4.30;;
11646;SDS011;5880;52.342;9.662;2023-05-08T15:47:10;4.63;;;4.22;;
11646;SDS011;5880;52.342;9.662;2023-05-08T15:49:36;4.78;;;4.25;;
11646;SDS011;5880;52.342;9.662;2023-05-08T15:52:01;4.28;;;3.88;;
11646;SDS011;5880;52.342;9.662;2023-05-08T15:54:27;4.55;;;4.15;;
11646;SDS011;5880;52.342;9.662;2023-05-08T15:56:53;4.47;;;4.00;;
11646;SDS011;5880;52.342;9.662;2023-05-08T15:59:19;4.30;;;4.00;;
11646;SDS011;5880;52.342;9.662;2023-05-08T16:01:44;4.40;;;4.00;;